Time;durP1;ratioP1;P1;durP2;ratioP2;P2;SDS_P1;SDS_P2;PMS_P1;PMS_P2;Temp;Humidity;BMP_temperature;BMP_pressure;BME280_temperature;BME280_humidity;BME280_pressure;Samples;Min_cycle;Max_cycle;Signal;HPM_P1;HPM_P2
2022/12/26 00:01:28;;;;;;;;;;;27.70;99.90;;;;;;5033219;28;19947;-69
2022/12/26 00:03:55;;;;;;;;;;;27.90;99.90;;;;;;5036374;28;19909;-69
2022/12/26 00:06:24;;;;;;;;;;;28.00;99.90;;;;;;5040059;28;19915;-68
2022/12/26 00:08:52;;;;;;;;;;;28.00;99.90;;;;;;5045932;28;20067;-67
2022/12/26 00:11:18;;;;;;;;;;;28.10;99.90;;;;;;5036136;28;19909;-70
2022/12/26 00:13:45;;;;;;;;;;;28.20;99.90;;;;;;5037320;28;19924;-68
2022/12/26 00:16:13;;;;;;;;;;;28.20;99.90;;;;;;5053327;28;20003;-68
2022/12/26 00:18:40;;;;;;;;;;;28.30;99.90;;;;;;5046862;28;19923;-70
2022/12/26 00:21:08;;;;;;;;;;;28.20;99.90;;;;;;5052368;28;19916;-69
2022/12/26 00:23:35;;;;;;;;;;;28.20;99.90;;;;;;5054673;28;19988;-69
2022/12/26 00:26:12;;;;;;;;;;;28.20;99.90;;;;;;5050680;28;20015;-68
2022/12/26 00:28:39;;;;;;;;;;;28.20;99.90;;;;;;5048717;28;20309;-68
2022/12/26 00:31:10;;;;;;;;;;;28.40;99.90;;;;;;5050930;28;19916;-68
2022/12/26 00:33:37;;;;;;;;;;;28.50;99.60;;;;;;5054442;28;19921;-71
2022/12/26 00:36:06;;;;;;;;;;;28.60;99.10;;;;;;5050580;28;19909;-69
2022/12/26 00:38:36;;;;;;;;;;;28.70;98.90;;;;;;5054015;28;20281;-68
2022/12/26 00:41:03;;;;;;;;;;;28.80;98.50;;;;;;5049499;28;20414;-69
2022/12/26 00:43:30;;;;;;;;;;;28.70;98.00;;;;;;5032628;28;19909;-68
2022/12/26 00:45:57;;;;;;;;;;;28.80;96.90;;;;;;5030033;28;20567;-68
2022/12/26 00:48:23;;;;;;;;;;;29.00;95.40;;;;;;5051098;28;19912;-68
2022/12/26 00:50:50;;;;;;;;;;;29.10;95.00;;;;;;5051584;28;19908;-68
2022/12/26 00:53:17;;;;;;;;;;;29.00;95.40;;;;;;5053746;28;19909;-69
2022/12/26 00:55:44;;;;;;;;;;;29.20;95.60;;;;;;5053227;28;19915;-70
2022/12/26 00:58:10;;;;;;;;;;;29.30;95.00;;;;;;5053282;28;19924;-68
2022/12/26 01:00:37;;;;;;;;;;;29.40;94.80;;;;;;5042804;28;19921;-68
2022/12/26 01:03:06;;;;;;;;;;;29.40;94.40;;;;;;5031216;28;20639;-70
2022/12/26 01:05:33;;;;;;;;;;;29.50;94.10;;;;;;5033392;28;19908;-68
2022/12/26 01:08:00;;;;;;;;;;;29.70;93.90;;;;;;5034700;28;19944;-69
2022/12/26 01:10:27;;;;;;;;;;;29.90;93.80;;;;;;5053980;28;19908;-69
2022/12/26 01:12:54;;;;;;;;;;;30.00;93.70;;;;;;5051727;28;19948;-69
2022/12/26 01:15:21;;;;;;;;;;;29.80;94.00;;;;;;5037766;28;19943;-68
2022/12/26 01:17:47;;;;;;;;;;;29.90;93.70;;;;;;5031957;28;19913;-68
2022/12/26 01:20:14;;;;;;;;;;;30.00;93.30;;;;;;5032831;28;20035;-68
2022/12/26 01:22:40;;;;;;;;;;;30.10;93.60;;;;;;5034005;28;19960;-68
2022/12/26 01:25:07;;;;;;;;;;;30.20;92.60;;;;;;5030762;28;19909;-70
2022/12/26 01:27:34;;;;;;;;;;;30.10;92.70;;;;;;5033196;28;20289;-70
2022/12/26 01:30:01;;;;;;;;;;;30.10;92.90;;;;;;5049247;28;19955;-69
2022/12/26 01:32:27;;;;;;;;;;;30.20;93.10;;;;;;5054473;28;19919;-69
2022/12/26 01:34:55;;;;;;;;;;;30.30;93.00;;;;;;5051345;28;20200;-69
2022/12/26 01:37:22;;;;;;;;;;;30.30;92.40;;;;;;5035814;28;19913;-69
2022/12/26 01:39:49;;;;;;;;;;;30.30;92.70;;;;;;5033129;28;19917;-69
2022/12/26 01:42:17;;;;;;;;;;;30.40;92.90;;;;;;5033782;28;19959;-70
2022/12/26 01:45:01;;;;;;;;;;;30.60;92.50;;;;;;5034823;28;19958;-69
2022/12/26 01:47:34;;;;;;;;;;;30.70;92.40;;;;;;5033462;28;19905;-69
2022/12/26 01:50:00;;;;;;;;;;;30.70;92.00;;;;;;5031162;28;19909;-68
2022/12/26 01:52:34;;;;;;;;;;;30.90;91.80;;;;;;5033133;28;20505;-69
2022/12/26 01:55:02;;;;;;;;;;;30.80;92.00;;;;;;5039396;28;19939;-68
2022/12/26 01:57:32;;;;;;;;;;;30.70;92.10;;;;;;5053236;28;20294;-67
2022/12/26 02:00:00;;;;;;;;;;;30.60;92.30;;;;;;5048844;28;20362;-68
2022/12/26 02:02:29;;;;;;;;;;;30.70;92.00;;;;;;5052289;28;19919;-68
2022/12/26 02:07:43;;;;;;;;;;;30.30;92.50;;;;;;5053508;28;19973;-69
2022/12/26 02:10:14;;;;;;;;;;;30.50;92.50;;;;;;5052179;28;20283;-69
2022/12/26 02:12:41;;;;;;;;;;;30.30;93.00;;;;;;5052805;28;19908;-69
2022/12/26 02:15:10;;;;;;;;;;;30.30;93.30;;;;;;5048767;28;20387;-69
2022/12/26 02:17:37;;;;;;;;;;;30.20;93.60;;;;;;5033451;28;19909;-68
2022/12/26 02:20:24;;;;;;;;;;;30.60;93.80;;;;;;5031382;28;19916;-68
2022/12/26 02:22:53;;;;;;;;;;;30.90;93.50;;;;;;5033286;28;19920;-68
2022/12/26 02:25:35;;;;;;;;;;;31.30;92.50;;;;;;5031166;28;20006;-68
2022/12/26 02:28:10;;;;;;;;;;;31.20;93.10;;;;;;5031029;28;19928;-69
2022/12/26 02:30:40;;;;;;;;;;;31.30;92.40;;;;;;5048364;28;19919;-69
2022/12/26 02:33:24;;;;;;;;;;;31.20;92.40;;;;;;5051355;28;19920;-68
2022/12/26 02:35:54;;;;;;;;;;;31.10;92.60;;;;;;5053029;28;19908;-68
2022/12/26 02:38:30;;;;;;;;;;;31.20;92.60;;;;;;5051739;28;20582;-68
2022/12/26 02:41:06;;;;;;;;;;;31.50;92.10;;;;;;5056867;28;19917;-70
2022/12/26 02:43:51;;;;;;;;;;;31.50;91.90;;;;;;5047017;28;19913;-68
2022/12/26 02:49:05;;;;;;;;;;;31.50;91.50;;;;;;5035763;28;19920;-69
2022/12/26 03:14:26;;;;;;;;;;;33.00;89.60;;;;;;5034410;28;19917;-70
2022/12/26 03:19:58;;;;;;;;;;;34.00;87.00;;;;;;5034239;28;20019;-69
2022/12/26 03:22:30;;;;;;;;;;;34.10;86.50;;;;;;5034054;28;19909;-70
2022/12/26 03:27:44;;;;;;;;;;;35.70;82.30;;;;;;5054403;28;19915;-69
2022/12/26 03:32:55;;;;;;;;;;;36.70;79.80;;;;;;5054559;28;20019;-69
2022/12/26 03:35:23;;;;;;;;;;;36.80;77.40;;;;;;5055410;28;19912;-69
2022/12/26 03:37:49;;;;;;;;;;;36.50;79.20;;;;;;5052672;28;19971;-67
2022/12/26 04:20:34;;;;;;;;;;;36.60;77.40;;;;;;5033760;28;19923;-70
2022/12/26 04:45:48;;;;;;;;;;;38.50;72.80;;;;;;5054671;28;19916;-69
2022/12/26 04:50:59;;;;;;;;;;;38.10;73.40;;;;;;5055081;28;19987;-68
2022/12/26 04:53:26;;;;;;;;;;;37.50;74.80;;;;;;5051037;28;20715;-68
2022/12/26 04:55:52;;;;;;;;;;;37.70;73.40;;;;;;5038456;28;20316;-70
2022/12/26 04:58:23;;;;;;;;;;;38.10;73.10;;;;;;5032455;28;19908;-68
2022/12/26 05:00:50;;;;;;;;;;;38.10;73.10;;;;;;5034292;28;20011;-69
2022/12/26 05:11:32;;;;;;;;;;;39.00;70.60;;;;;;5032214;28;19924;-68
2022/12/26 05:13:59;;;;;;;;;;;38.60;71.50;;;;;;5034620;28;20616;-69
2022/12/26 05:30:18;;;;;;;;;;;38.70;68.40;;;;;;5033723;28;20019;-68
2022/12/26 05:35:29;;;;;;;;;;;37.40;71.30;;;;;;5049489;28;19914;-70
2022/12/26 05:37:55;;;;;;;;;;;37.80;70.00;;;;;;5033639;28;20424;-69
2022/12/26 05:40:22;;;;;;;;;;;37.40;70.10;;;;;;5033152;28;19917;-68
2022/12/26 05:42:49;;;;;;;;;;;36.70;72.00;;;;;;5031493;28;20143;-68
2022/12/26 05:45:15;;;;;;;;;;;36.60;72.50;;;;;;5033391;28;19958;-68
2022/12/26 05:47:42;;;;;;;;;;;36.70;71.50;;;;;;5031021;28;19952;-69
2022/12/26 05:50:08;;;;;;;;;;;36.40;71.60;;;;;;5034666;28;20763;-68
2022/12/26 05:52:35;;;;;;;;;;;35.70;73.50;;;;;;5030105;28;20681;-69
2022/12/26 05:55:02;;;;;;;;;;;35.00;75.10;;;;;;5034129;28;19944;-69
2022/12/26 05:57:29;;;;;;;;;;;34.10;76.60;;;;;;5040425;28;19924;-68
2022/12/26 05:59:55;;;;;;;;;;;33.80;77.70;;;;;;5048277;28;20066;-67
2022/12/26 06:02:22;;;;;;;;;;;34.00;78.70;;;;;;5042087;28;19912;-68
2022/12/26 06:04:48;;;;;;;;;;;34.00;78.30;;;;;;5038857;28;20000;-69
2022/12/26 06:07:15;;;;;;;;;;;33.60;79.20;;;;;;5038017;28;19924;-69
2022/12/26 06:09:42;;;;;;;;;;;33.40;78.50;;;;;;5038971;28;19939;-67
2022/12/26 06:12:08;;;;;;;;;;;33.10;79.30;;;;;;5039325;28;20641;-68
2022/12/26 06:14:35;;;;;;;;;;;32.70;81.50;;;;;;5040887;28;19916;-70
2022/12/26 06:17:01;;;;;;;;;;;32.60;81.10;;;;;;5045420;28;19909;-68
2022/12/26 06:19:28;;;;;;;;;;;32.10;81.10;;;;;;5042407;28;19935;-67
2022/12/26 06:21:55;;;;;;;;;;;31.60;81.80;;;;;;5045416;28;19912;-68
2022/12/26 06:24:21;;;;;;;;;;;31.50;83.40;;;;;;5043837;28;20545;-69
2022/12/26 06:26:48;;;;;;;;;;;31.50;81.60;;;;;;5046755;28;19917;-69
2022/12/26 06:29:15;;;;;;;;;;;31.60;82.90;;;;;;5043569;28;19913;-68
2022/12/26 06:31:41;;;;;;;;;;;31.60;81.60;;;;;;5039982;28;20011;-68
2022/12/26 06:34:10;;;;;;;;;;;31.60;80.90;;;;;;5038458;28;19921;-68
2022/12/26 06:36:36;;;;;;;;;;;31.70;80.50;;;;;;5039894;28;19954;-69
2022/12/26 06:39:03;;;;;;;;;;;31.90;79.30;;;;;;5053165;28;19978;-69
2022/12/26 06:41:30;;;;;;;;;;;31.50;79.60;;;;;;5034039;28;19948;-67
2022/12/26 06:43:57;;;;;;;;;;;31.50;80.70;;;;;;5036120;28;19948;-68
2022/12/26 06:46:25;;;;;;;;;;;31.20;80.20;;;;;;5045823;28;20357;-70
2022/12/26 06:48:52;;;;;;;;;;;30.90;81.70;;;;;;5053648;28;19912;-68
2022/12/26 06:51:20;;;;;;;;;;;30.90;81.60;;;;;;5054587;28;19920;-67
2022/12/26 06:53:47;;;;;;;;;;;30.80;81.10;;;;;;5054755;28;20003;-69
2022/12/26 06:56:19;;;;;;;;;;;30.80;81.70;;;;;;5053283;28;19912;-68
2022/12/26 06:58:46;;;;;;;;;;;30.40;80.20;;;;;;5035306;28;19917;-68
2022/12/26 07:01:14;;;;;;;;;;;30.30;82.50;;;;;;5055851;28;19948;-69
2022/12/26 07:03:41;;;;;;;;;;;30.40;82.60;;;;;;5055323;28;19947;-68
2022/12/26 07:06:11;;;;;;;;;;;30.30;82.10;;;;;;5055474;28;19982;-69
2022/12/26 07:08:38;;;;;;;;;;;30.40;81.70;;;;;;5034344;28;20119;-67
2022/12/26 07:11:04;;;;;;;;;;;30.50;81.10;;;;;;5035764;28;19920;-67
2022/12/26 07:13:31;;;;;;;;;;;30.30;81.40;;;;;;5042614;28;20669;-69
2022/12/26 07:15:59;;;;;;;;;;;30.10;83.00;;;;;;5056016;28;19920;-67
2022/12/26 07:18:25;;;;;;;;;;;30.00;83.30;;;;;;5035079;28;19923;-68
2022/12/26 07:20:52;;;;;;;;;;;29.80;83.50;;;;;;5035396;28;19916;-69
2022/12/26 07:23:18;;;;;;;;;;;29.60;82.60;;;;;;5033652;28;20007;-69
2022/12/26 07:25:47;;;;;;;;;;;29.40;84.30;;;;;;5033813;28;20015;-69
2022/12/26 07:28:14;;;;;;;;;;;29.10;84.70;;;;;;5042581;28;19936;-68
2022/12/26 07:30:48;;;;;;;;;;;28.90;83.50;;;;;;5034056;28;19935;-68
2022/12/26 07:33:14;;;;;;;;;;;28.80;83.70;;;;;;5035173;28;20600;-68
2022/12/26 07:35:41;;;;;;;;;;;28.70;85.50;;;;;;5039989;28;19912;-68
2022/12/26 07:38:08;;;;;;;;;;;28.70;86.00;;;;;;5039128;28;19970;-68
2022/12/26 07:40:35;;;;;;;;;;;29.00;85.70;;;;;;5033078;28;20016;-68
2022/12/26 07:43:01;;;;;;;;;;;29.00;85.00;;;;;;5056047;28;19908;-68
2022/12/26 07:45:28;;;;;;;;;;;29.00;85.70;;;;;;5053388;28;19932;-68
2022/12/26 07:47:55;;;;;;;;;;;28.80;86.20;;;;;;5040185;28;20569;-68
2022/12/26 07:50:22;;;;;;;;;;;28.70;85.60;;;;;;5049169;28;19921;-69
2022/12/26 07:52:49;;;;;;;;;;;28.60;85.70;;;;;;5055915;28;19990;-69
2022/12/26 07:55:15;;;;;;;;;;;28.70;86.20;;;;;;5053158;28;19916;-68
2022/12/26 07:57:42;;;;;;;;;;;28.60;83.70;;;;;;5040735;28;19909;-68
2022/12/26 08:00:09;;;;;;;;;;;28.30;84.80;;;;;;5034612;28;19917;-67
2022/12/26 08:02:36;;;;;;;;;;;28.20;86.30;;;;;;5034974;28;20354;-65
2022/12/26 08:05:03;;;;;;;;;;;28.10;87.00;;;;;;5037180;28;19935;-68
2022/12/26 08:07:29;;;;;;;;;;;27.90;88.00;;;;;;5042695;28;19909;-68
2022/12/26 08:09:56;;;;;;;;;;;27.90;88.30;;;;;;5051400;28;20359;-69
2022/12/26 08:12:23;;;;;;;;;;;27.70;88.80;;;;;;5054091;28;19909;-69
2022/12/26 08:14:50;;;;;;;;;;;27.60;89.90;;;;;;5055008;28;19913;-69
2022/12/26 08:17:17;;;;;;;;;;;27.50;90.00;;;;;;5043858;28;19921;-69
2022/12/26 08:19:43;;;;;;;;;;;27.40;90.40;;;;;;5037854;28;20127;-69
2022/12/26 08:22:10;;;;;;;;;;;27.20;90.50;;;;;;5045428;28;19969;-69
2022/12/26 08:24:36;;;;;;;;;;;27.10;90.80;;;;;;5034860;28;19909;-69
2022/12/26 08:27:04;;;;;;;;;;;27.00;90.80;;;;;;5035578;28;19913;-69
2022/12/26 08:29:31;;;;;;;;;;;26.90;91.00;;;;;;5030871;28;20365;-68
2022/12/26 08:31:57;;;;;;;;;;;26.80;91.10;;;;;;5036084;28;19928;-69
2022/12/26 08:34:24;;;;;;;;;;;26.80;91.60;;;;;;5040091;28;19958;-69
2022/12/26 08:36:51;;;;;;;;;;;26.70;91.80;;;;;;5049183;28;20321;-67
2022/12/26 08:39:18;;;;;;;;;;;26.60;91.70;;;;;;5032027;28;19917;-68
2022/12/26 08:41:48;;;;;;;;;;;26.50;92.00;;;;;;5033119;28;20146;-68
2022/12/26 08:44:16;;;;;;;;;;;26.40;92.40;;;;;;5038157;28;19935;-69
2022/12/26 08:46:43;;;;;;;;;;;26.20;92.80;;;;;;5049949;28;19908;-69
2022/12/26 08:49:10;;;;;;;;;;;26.10;93.30;;;;;;5035445;28;19909;-70
2022/12/26 08:51:37;;;;;;;;;;;26.00;93.70;;;;;;5032338;28;20372;-69
2022/12/26 08:54:04;;;;;;;;;;;25.90;94.10;;;;;;5034309;28;19954;-70
2022/12/26 08:56:31;;;;;;;;;;;25.70;94.50;;;;;;5035646;28;19953;-69
2022/12/26 08:58:58;;;;;;;;;;;25.70;94.60;;;;;;5035147;28;19920;-70
2022/12/26 09:01:26;;;;;;;;;;;25.60;94.80;;;;;;5032692;28;19909;-70
2022/12/26 09:03:54;;;;;;;;;;;25.40;95.40;;;;;;5034523;28;19962;-68
2022/12/26 09:06:20;;;;;;;;;;;25.30;95.60;;;;;;5050088;28;19908;-69
2022/12/26 09:08:47;;;;;;;;;;;25.20;95.90;;;;;;5034170;28;20038;-69
2022/12/26 09:11:16;;;;;;;;;;;25.10;96.70;;;;;;5048468;28;19912;-66
2022/12/26 09:13:44;;;;;;;;;;;25.20;96.80;;;;;;5052389;28;19909;-67
2022/12/26 09:16:20;;;;;;;;;;;25.30;96.90;;;;;;5054403;28;19908;-68
2022/12/26 09:18:47;;;;;;;;;;;25.20;97.00;;;;;;5031901;28;19920;-68
2022/12/26 09:21:14;;;;;;;;;;;25.20;97.30;;;;;;5035335;28;20382;-68
2022/12/26 09:23:41;;;;;;;;;;;25.30;97.50;;;;;;5044569;28;19939;-67
2022/12/26 09:26:09;;;;;;;;;;;25.20;97.50;;;;;;5053806;28;19909;-68
2022/12/26 09:28:36;;;;;;;;;;;25.10;97.90;;;;;;5041125;28;19908;-69
2022/12/26 09:31:04;;;;;;;;;;;25.00;98.40;;;;;;5033630;28;19981;-68
2022/12/26 09:33:40;;;;;;;;;;;25.00;99.00;;;;;;5030916;28;19921;-66
2022/12/26 09:36:08;;;;;;;;;;;25.00;99.00;;;;;;5049353;28;19946;-67
2022/12/26 09:38:35;;;;;;;;;;;25.00;99.60;;;;;;5041030;28;19916;-67
2022/12/26 09:41:02;;;;;;;;;;;25.00;99.70;;;;;;5051818;28;19927;-67
2022/12/26 09:43:28;;;;;;;;;;;25.00;99.80;;;;;;5045103;28;19962;-67
2022/12/26 09:46:06;;;;;;;;;;;24.90;99.90;;;;;;5051167;28;20543;-68
2022/12/26 09:48:36;;;;;;;;;;;24.80;99.90;;;;;;5042581;28;19908;-67
2022/12/26 09:51:03;;;;;;;;;;;24.80;99.90;;;;;;5032867;28;19968;-67
2022/12/26 09:53:42;;;;;;;;;;;24.70;99.90;;;;;;5031041;28;19931;-68
2022/12/26 09:56:14;;;;;;;;;;;24.70;99.90;;;;;;5048439;28;19919;-68
2022/12/26 09:58:43;;;;;;;;;;;24.70;99.90;;;;;;5049737;28;19952;-66
2022/12/26 10:01:13;;;;;;;;;;;24.60;99.90;;;;;;5053611;28;19977;-69
2022/12/26 10:03:51;;;;;;;;;;;24.60;99.90;;;;;;5050487;28;19926;-68
2022/12/26 10:06:18;;;;;;;;;;;24.50;99.90;;;;;;5049954;28;19917;-70
2022/12/26 10:09:03;;;;;;;;;;;24.40;99.90;;;;;;5040405;28;19913;-69
2022/12/26 10:11:42;;;;;;;;;;;24.20;99.90;;;;;;5050091;28;19968;-71
2022/12/26 10:14:31;;;;;;;;;;;24.20;99.90;;;;;;5053629;28;19909;-71
2022/12/26 10:17:02;;;;;;;;;;;24.20;99.90;;;;;;5051384;28;19909;-71
2022/12/26 10:19:44;;;;;;;;;;;24.20;99.90;;;;;;5050689;28;20007;-71
2022/12/26 10:22:11;;;;;;;;;;;24.30;99.90;;;;;;5053313;28;19912;-67
2022/12/26 10:24:38;;;;;;;;;;;24.30;99.90;;;;;;5037042;28;20273;-68
2022/12/26 10:27:09;;;;;;;;;;;24.30;99.90;;;;;;5031468;28;19962;-66
2022/12/26 10:29:45;;;;;;;;;;;24.20;99.90;;;;;;5047311;28;19919;-67
2022/12/26 10:32:12;;;;;;;;;;;24.10;99.90;;;;;;5052304;28;19912;-67
2022/12/26 10:34:43;;;;;;;;;;;24.00;99.90;;;;;;5050948;28;19960;-65
2022/12/26 10:37:13;;;;;;;;;;;23.90;99.90;;;;;;5049047;28;19916;-66
2022/12/26 10:39:44;;;;;;;;;;;23.80;99.90;;;;;;5040213;28;19921;-66
2022/12/26 10:42:18;;;;;;;;;;;23.80;99.90;;;;;;5034901;28;20006;-67
2022/12/26 10:44:44;;;;;;;;;;;23.70;99.90;;;;;;5032883;28;19908;-67
2022/12/26 10:47:25;;;;;;;;;;;23.70;99.90;;;;;;5032341;28;20036;-66
2022/12/26 10:49:52;;;;;;;;;;;23.70;99.90;;;;;;5039026;28;20012;-67
2022/12/26 10:52:21;;;;;;;;;;;23.60;99.90;;;;;;5046699;28;19913;-67
2022/12/26 10:54:52;;;;;;;;;;;23.60;99.90;;;;;;5045610;28;19917;-68
2022/12/26 10:57:19;;;;;;;;;;;23.60;99.90;;;;;;5032799;28;19927;-67
2022/12/26 10:59:47;;;;;;;;;;;23.50;99.90;;;;;;5049876;28;19921;-66
2022/12/26 11:02:30;;;;;;;;;;;23.50;99.90;;;;;;5043268;28;20389;-68
2022/12/26 11:05:05;;;;;;;;;;;23.40;99.90;;;;;;5035648;28;20572;-68
2022/12/26 11:07:34;;;;;;;;;;;23.40;99.90;;;;;;5044693;28;19986;-68
2022/12/26 11:10:01;;;;;;;;;;;23.30;99.90;;;;;;5042880;28;19942;-68
2022/12/26 11:12:31;;;;;;;;;;;23.30;99.90;;;;;;5047555;28;20438;-69
2022/12/26 11:15:17;;;;;;;;;;;23.30;99.90;;;;;;5041158;28;19912;-68
2022/12/26 11:17:44;;;;;;;;;;;23.20;99.90;;;;;;5041457;28;19913;-69
2022/12/26 11:20:14;;;;;;;;;;;23.20;99.90;;;;;;5039011;28;19917;-70
2022/12/26 11:22:41;;;;;;;;;;;23.20;99.90;;;;;;5041107;28;19913;-69
2022/12/26 11:25:19;;;;;;;;;;;23.10;99.90;;;;;;5043464;28;20020;-69
2022/12/26 11:27:55;;;;;;;;;;;23.10;99.90;;;;;;5049860;28;20392;-66
2022/12/26 11:30:27;;;;;;;;;;;23.10;99.90;;;;;;5034579;28;19909;-67
2022/12/26 11:33:05;;;;;;;;;;;23.10;99.90;;;;;;5041031;28;19912;-67
2022/12/26 11:35:36;;;;;;;;;;;23.10;99.90;;;;;;5054428;28;20295;-67
2022/12/26 11:38:07;;;;;;;;;;;23.00;99.90;;;;;;5049807;28;19913;-66
2022/12/26 11:40:38;;;;;;;;;;;23.00;99.90;;;;;;5034928;28;19917;-66
2022/12/26 11:43:06;;;;;;;;;;;23.00;99.90;;;;;;5049964;28;19916;-67
2022/12/26 11:45:36;;;;;;;;;;;22.90;99.90;;;;;;5055070;28;20121;-67
2022/12/26 11:48:07;;;;;;;;;;;22.90;99.90;;;;;;5044869;28;19978;-67
2022/12/26 11:50:43;;;;;;;;;;;23.00;99.90;;;;;;5033934;28;20495;-67
2022/12/26 11:53:14;;;;;;;;;;;23.00;99.90;;;;;;5041964;28;19916;-68
2022/12/26 11:55:41;;;;;;;;;;;23.00;99.90;;;;;;5039568;28;19959;-68
2022/12/26 11:58:08;;;;;;;;;;;22.90;99.90;;;;;;5048207;28;20034;-67
2022/12/26 12:00:42;;;;;;;;;;;22.90;99.90;;;;;;5037149;28;19929;-68
2022/12/26 12:03:16;;;;;;;;;;;22.90;99.90;;;;;;5033194;28;20357;-67
2022/12/26 12:05:48;;;;;;;;;;;22.90;99.90;;;;;;5035149;28;20439;-67
2022/12/26 12:08:27;;;;;;;;;;;22.90;99.90;;;;;;5032953;28;19913;-67
2022/12/26 12:10:59;;;;;;;;;;;22.90;99.90;;;;;;5034999;28;19919;-66
2022/12/26 12:13:45;;;;;;;;;;;22.90;99.90;;;;;;5033436;28;19924;-66
2022/12/26 12:16:29;;;;;;;;;;;22.90;99.90;;;;;;5043813;28;20019;-66
2022/12/26 12:19:02;;;;;;;;;;;22.90;99.90;;;;;;5043048;28;19959;-67
2022/12/26 12:21:51;;;;;;;;;;;23.00;99.90;;;;;;5032792;28;19920;-69
2022/12/26 12:24:24;;;;;;;;;;;23.00;99.90;;;;;;5042891;28;19912;-68
2022/12/26 12:27:05;;;;;;;;;;;23.00;99.90;;;;;;5053827;28;19912;-70
2022/12/26 12:29:42;;;;;;;;;;;23.00;99.90;;;;;;5035252;28;19920;-70
2022/12/26 12:32:14;;;;;;;;;;;23.10;99.90;;;;;;5032642;28;20000;-69
2022/12/26 12:34:44;;;;;;;;;;;23.10;99.90;;;;;;5034544;28;20405;-69
2022/12/26 12:37:11;;;;;;;;;;;23.10;99.90;;;;;;5035962;28;19912;-66
2022/12/26 12:40:16;;;;;;;;;;;23.10;99.90;;;;;;5036383;28;19916;-68
2022/12/26 12:42:51;;;;;;;;;;;23.20;99.90;;;;;;5048279;28;19913;-67
2022/12/26 12:45:27;;;;;;;;;;;23.10;99.90;;;;;;5050421;28;19908;-67
2022/12/26 12:48:18;;;;;;;;;;;23.10;99.90;;;;;;5040685;28;19934;-67
2022/12/26 12:51:02;;;;;;;;;;;23.10;99.90;;;;;;5034165;28;19909;-67
2022/12/26 12:53:47;;;;;;;;;;;23.10;99.90;;;;;;5045193;28;19913;-66
2022/12/26 12:56:42;;;;;;;;;;;23.10;99.90;;;;;;5031246;28;19920;-66
2022/12/26 12:59:21;;;;;;;;;;;23.10;99.90;;;;;;5030054;28;20034;-68
2022/12/26 13:01:50;;;;;;;;;;;23.10;99.90;;;;;;5034723;28;20574;-66
2022/12/26 13:04:19;;;;;;;;;;;23.00;99.90;;;;;;5031563;28;19928;-66
2022/12/26 13:06:46;;;;;;;;;;;22.90;99.90;;;;;;5050675;28;20355;-66
2022/12/26 13:09:23;;;;;;;;;;;22.80;99.90;;;;;;5048277;28;19948;-68
2022/12/26 13:12:03;;;;;;;;;;;22.80;99.90;;;;;;5052966;28;19982;-67
2022/12/26 13:14:49;;;;;;;;;;;22.80;99.90;;;;;;5050759;28;20592;-69
2022/12/26 13:17:25;;;;;;;;;;;22.80;99.90;;;;;;5029717;28;20006;-68
2022/12/26 13:19:58;;;;;;;;;;;22.80;99.90;;;;;;5041600;28;19937;-68
2022/12/26 13:24:22;;;;;;;;;;;22.80;99.90;;;;;;5050979;28;20284;-69
2022/12/26 13:25:19;;;;;;;;;;;22.70;99.90;;;;;;5051621;28;20041;-67
2022/12/26 13:27:46;;;;;;;;;;;22.70;99.90;;;;;;5053278;28;19919;-68
2022/12/26 13:30:14;;;;;;;;;;;22.70;99.90;;;;;;5053012;28;19914;-69
2022/12/26 13:32:41;;;;;;;;;;;22.70;99.90;;;;;;5052140;28;19913;-67
2022/12/26 13:35:37;;;;;;;;;;;22.70;99.90;;;;;;5033728;28;19995;-67
2022/12/26 13:38:04;;;;;;;;;;;22.70;99.90;;;;;;5032562;28;19908;-68
2022/12/26 13:40:30;;;;;;;;;;;22.60;99.90;;;;;;5031696;28;19959;-66
2022/12/26 13:46:34;;;;;;;;;;;22.60;99.90;;;;;;5033041;28;20222;-68
2022/12/26 13:49:00;;;;;;;;;;;22.60;99.90;;;;;;5050568;28;19913;-67
2022/12/26 13:51:44;;;;;;;;;;;22.60;99.90;;;;;;5055423;28;19908;-68
2022/12/26 13:54:11;;;;;;;;;;;22.60;99.90;;;;;;5053555;28;20225;-67
2022/12/26 13:56:41;;;;;;;;;;;22.60;99.90;;;;;;5051182;28;19913;-68
2022/12/26 13:59:34;;;;;;;;;;;22.60;99.90;;;;;;5053020;28;19923;-69
2022/12/26 14:02:03;;;;;;;;;;;22.60;99.90;;;;;;5043798;28;19913;-68
2022/12/26 14:04:30;;;;;;;;;;;22.60;99.90;;;;;;5032998;28;19959;-69
2022/12/26 14:07:29;;;;;;;;;;;22.50;99.90;;;;;;5031699;28;20027;-68
2022/12/26 14:10:14;;;;;;;;;;;22.50;99.90;;;;;;5031163;28;19913;-68
2022/12/26 14:12:58;;;;;;;;;;;22.50;99.90;;;;;;5030251;28;20014;-68
2022/12/26 14:15:38;;;;;;;;;;;22.50;99.90;;;;;;5036832;28;19912;-69
2022/12/26 14:18:31;;;;;;;;;;;22.50;99.90;;;;;;5053810;28;20010;-68
2022/12/26 14:21:01;;;;;;;;;;;22.40;99.90;;;;;;5051842;28;19920;-67
2022/12/26 14:23:44;;;;;;;;;;;22.40;99.90;;;;;;5052847;28;19955;-68
2022/12/26 14:26:11;;;;;;;;;;;22.30;99.90;;;;;;5054316;28;20004;-68
2022/12/26 14:28:56;;;;;;;;;;;22.30;99.90;;;;;;5046291;28;20426;-69
2022/12/26 14:31:32;;;;;;;;;;;22.30;99.90;;;;;;5034024;28;19933;-68
2022/12/26 14:34:01;;;;;;;;;;;22.20;99.90;;;;;;5042285;28;20565;-68
2022/12/26 14:36:34;;;;;;;;;;;22.20;99.90;;;;;;5056312;28;19935;-68
2022/12/26 14:39:12;;;;;;;;;;;22.20;99.90;;;;;;5054758;28;19916;-68
2022/12/26 14:44:43;;;;;;;;;;;22.20;99.90;;;;;;5033205;28;19970;-69
2022/12/26 14:47:10;;;;;;;;;;;22.20;99.90;;;;;;5038240;28;19940;-69
2022/12/26 14:49:38;;;;;;;;;;;22.20;99.90;;;;;;5035804;28;19923;-69
2022/12/26 14:52:23;;;;;;;;;;;22.10;99.90;;;;;;5042535;28;19912;-68
2022/12/26 14:54:51;;;;;;;;;;;22.10;99.90;;;;;;5054310;28;19909;-68
2022/12/26 14:57:35;;;;;;;;;;;22.10;99.90;;;;;;5057748;28;19915;-68
2022/12/26 15:00:12;;;;;;;;;;;22.00;99.90;;;;;;5055358;28;19916;-67
2022/12/26 15:02:41;;;;;;;;;;;22.00;99.90;;;;;;5056065;28;19922;-68
2022/12/26 15:05:13;;;;;;;;;;;22.00;99.90;;;;;;5055897;28;19913;-68
2022/12/26 15:07:55;;;;;;;;;;;22.00;99.90;;;;;;5035655;28;20011;-69
2022/12/26 15:10:22;;;;;;;;;;;22.00;99.90;;;;;;5039657;28;19916;-68
2022/12/26 15:12:59;;;;;;;;;;;22.00;99.90;;;;;;5055000;28;20365;-69
2022/12/26 15:15:32;;;;;;;;;;;21.90;99.90;;;;;;5058383;28;19956;-68
2022/12/26 15:18:14;;;;;;;;;;;21.90;99.90;;;;;;5056093;28;20367;-69
2022/12/26 15:20:58;;;;;;;;;;;21.80;99.90;;;;;;5043016;28;20265;-67
2022/12/26 15:23:32;;;;;;;;;;;21.80;99.90;;;;;;5037271;28;20377;-68
2022/12/26 15:26:12;;;;;;;;;;;21.80;99.90;;;;;;5036282;28;20007;-68
2022/12/26 15:28:48;;;;;;;;;;;21.70;99.90;;;;;;5036452;28;19984;-69
2022/12/26 15:31:15;;;;;;;;;;;21.70;99.90;;;;;;5034463;28;20365;-69
2022/12/26 15:34:02;;;;;;;;;;;21.70;99.90;;;;;;5043878;28;19921;-69
2022/12/26 15:36:38;;;;;;;;;;;21.70;99.90;;;;;;5054734;28;19916;-67
2022/12/26 15:39:22;;;;;;;;;;;21.60;99.90;;;;;;5055420;28;19908;-68
2022/12/26 15:41:52;;;;;;;;;;;21.60;99.90;;;;;;5055594;28;20345;-67
2022/12/26 15:44:22;;;;;;;;;;;21.60;99.90;;;;;;5057436;28;19912;-68
2022/12/26 15:46:49;;;;;;;;;;;21.60;99.90;;;;;;5036813;28;19913;-68
2022/12/26 15:49:31;;;;;;;;;;;21.60;99.90;;;;;;5037061;28;20031;-67
2022/12/26 15:52:13;;;;;;;;;;;21.50;99.90;;;;;;5035194;28;19908;-66
2022/12/26 15:54:58;;;;;;;;;;;21.50;99.90;;;;;;5033212;28;19905;-67
2022/12/26 15:57:33;;;;;;;;;;;21.50;99.90;;;;;;5034919;28;19908;-68
2022/12/26 16:00:03;;;;;;;;;;;21.60;99.90;;;;;;5047378;28;20400;-67
2022/12/26 16:02:32;;;;;;;;;;;21.50;99.90;;;;;;5053605;28;19924;-67
2022/12/26 16:05:21;;;;;;;;;;;21.50;99.90;;;;;;5054436;28;19930;-67
2022/12/26 16:08:01;;;;;;;;;;;21.50;99.90;;;;;;5055077;28;19908;-67
2022/12/26 16:10:33;;;;;;;;;;;21.60;99.90;;;;;;5054312;28;19908;-68
2022/12/26 16:13:02;;;;;;;;;;;21.60;99.90;;;;;;5052315;28;19927;-67
2022/12/26 16:15:31;;;;;;;;;;;21.60;99.90;;;;;;5051998;28;19912;-68
2022/12/26 16:18:27;;;;;;;;;;;21.60;99.90;;;;;;5053182;28;20602;-68
2022/12/26 16:23:49;;;;;;;;;;;21.70;99.90;;;;;;5052284;28;19913;-67
2022/12/26 16:26:27;;;;;;;;;;;21.60;99.90;;;;;;5051426;28;19909;-68
2022/12/26 16:28:55;;;;;;;;;;;21.60;99.90;;;;;;5035315;28;20058;-67
2022/12/26 16:31:27;;;;;;;;;;;21.60;99.90;;;;;;5035237;28;19909;-67
2022/12/26 16:33:56;;;;;;;;;;;21.60;99.90;;;;;;5036261;28;19931;-67
2022/12/26 16:36:24;;;;;;;;;;;21.50;99.90;;;;;;5034754;28;19994;-67
2022/12/26 16:38:51;;;;;;;;;;;21.50;99.90;;;;;;5034984;28;19933;-66
2022/12/26 16:41:21;;;;;;;;;;;21.50;99.90;;;;;;5047034;28;19928;-67
2022/12/26 16:43:48;;;;;;;;;;;21.50;99.90;;;;;;5052039;28;19909;-68
2022/12/26 16:46:17;;;;;;;;;;;21.50;99.90;;;;;;5055911;28;19913;-67
2022/12/26 16:48:46;;;;;;;;;;;21.50;99.90;;;;;;5051927;28;19919;-67
2022/12/26 16:51:31;;;;;;;;;;;21.40;99.90;;;;;;5054515;28;19966;-68
2022/12/26 16:54:13;;;;;;;;;;;21.40;99.90;;;;;;5047942;28;19913;-67
2022/12/26 16:56:40;;;;;;;;;;;21.30;99.90;;;;;;5037184;28;20313;-67